createdAt,value
2023-02-22T00:03:32.589Z,98792.27
2023-02-22T00:08:37.158Z,98798.30
2023-02-22T00:13:45.855Z,98802.33
2023-02-22T00:18:50.327Z,98802.81
2023-02-22T00:23:58.291Z,98802.42
2023-02-22T00:29:01.457Z,98803.15
2023-02-22T00:34:04.524Z,98803.91
2023-02-22T00:39:08.517Z,98804.69
2023-02-22T00:44:11.902Z,98807.20
2023-02-22T00:49:17.248Z,98809.58
2023-02-22T00:54:21.944Z,98811.61
2023-02-22T00:59:24.735Z,98808.93
2023-02-22T01:04:30.603Z,98805.96
2023-02-22T01:09:35.106Z,98807.09
2023-02-22T01:14:40.141Z,98810.50
2023-02-22T01:19:43.243Z,98806.69
2023-02-22T01:24:46.788Z,98805.61
2023-02-22T01:29:50.285Z,98809.50
2023-02-22T01:34:56.497Z,98813.15
2023-02-22T01:39:59.365Z,98805.38
2023-02-22T01:45:30.518Z,98804.72
2023-02-22T01:50:37.566Z,98798.52
2023-02-22T01:55:43.593Z,98802.79
2023-02-22T02:00:45.834Z,98804.38
2023-02-22T02:05:52.924Z,98800.15
2023-02-22T02:10:58.098Z,98798.69
2023-02-22T02:16:01.087Z,98800.31
2023-02-22T02:21:16.451Z,98796.82
2023-02-22T02:26:57.627Z,98802.55
2023-02-22T02:32:27.550Z,98804.68
2023-02-22T02:37:56.620Z,98804.58
2023-02-22T02:43:29.612Z,98804.35
2023-02-22T02:48:35.005Z,98812.85
2023-02-22T02:53:43.223Z,98807.92
2023-02-22T02:58:49.157Z,98807.64
2023-02-22T03:04:38.193Z,98807.13
2023-02-22T03:10:21.428Z,98806.30
2023-02-22T03:16:06.448Z,98804.33
2023-02-22T03:21:25.471Z,98807.89
2023-02-22T03:26:36.369Z,98811.55
2023-02-22T03:32:09.712Z,98813.95
2023-02-22T03:37:19.457Z,98820.31
2023-02-22T03:42:26.824Z,98821.95
2023-02-22T03:47:40.073Z,98820.42
2023-02-22T03:52:45.304Z,98819.38
2023-02-22T03:58:05.141Z,98825.16
2023-02-22T04:03:08.031Z,98825.89
2023-02-22T04:08:13.730Z,98822.86
2023-02-22T04:13:20.150Z,98831.59
2023-02-22T04:18:28.875Z,98827.17
2023-02-22T04:23:32.231Z,98830.29
2023-02-22T04:28:34.788Z,98828.24
2023-02-22T04:33:46.226Z,98823.73
2023-02-22T04:38:52.222Z,98823.89
2023-02-22T04:43:55.283Z,98827.51
2023-02-22T04:49:01.373Z,98823.89
2023-02-22T04:54:06.932Z,98828.84
2023-02-22T04:59:17.265Z,98829.27
2023-02-22T05:04:22.780Z,98830.73
2023-02-22T05:09:27.582Z,98831.85
2023-02-22T05:14:30.610Z,98825.84
2023-02-22T05:19:36.254Z,98824.70
2023-02-22T05:24:39.173Z,98822.17
2023-02-22T05:29:41.640Z,98831.56
2023-02-22T05:34:45.775Z,98837.17
2023-02-22T05:39:48.622Z,98839.30
2023-02-22T05:44:51.004Z,98837.20
2023-02-22T05:49:57.752Z,98839.08
2023-02-22T05:55:00.792Z,98844.74
2023-02-22T06:00:06.928Z,98847.25
2023-02-22T06:05:32.093Z,98859.88
2023-02-22T06:10:36.653Z,98863.90
2023-02-22T06:16:01.073Z,98868.20
2023-02-22T06:21:04.534Z,98873.55
2023-02-22T06:26:07.742Z,98876.84
2023-02-22T06:31:11.313Z,98888.23
2023-02-22T06:36:14.004Z,98891.11
2023-02-22T06:41:19.008Z,98898.45
2023-02-22T06:46:31.208Z,98905.48
2023-02-22T06:51:37.717Z,98912.81
2023-02-22T06:56:40.334Z,98914.59
2023-02-22T07:01:45.141Z,98920.92
2023-02-22T07:06:53.908Z,98924.61
2023-02-22T07:11:58.737Z,98924.63
2023-02-22T07:17:00.929Z,98925.05
2023-02-22T07:22:02.986Z,98923.13
2023-02-22T07:27:05.509Z,98925.96
2023-02-22T07:32:08.371Z,98917.52
2023-02-22T07:37:11.707Z,98919.38
2023-02-22T07:42:14.731Z,98919.73
2023-02-22T07:47:17.789Z,98925.05
2023-02-22T07:52:21.599Z,98924.45
2023-02-22T07:57:24.062Z,98923.23
2023-02-22T08:02:26.709Z,98920.48
2023-02-22T08:07:29.083Z,98922.36
2023-02-22T08:12:31.697Z,98924.38
2023-02-22T08:17:34.598Z,98923.19
2023-02-22T08:22:37.045Z,98928.06
2023-02-22T08:27:39.186Z,98925.92
2023-02-22T08:32:46.678Z,98934.35
2023-02-22T08:37:52.665Z,98940.66
2023-02-22T08:42:55.416Z,98940.09
2023-02-22T08:47:59.493Z,98943.33
2023-02-22T08:53:04.133Z,98942.33
2023-02-22T08:58:10.253Z,98947.10
2023-02-22T09:03:14.956Z,98940.55
2023-02-22T09:08:17.454Z,98943.36
2023-02-22T09:13:19.698Z,98943.80
2023-02-22T09:18:24.512Z,98945.11
2023-02-22T09:23:28.591Z,98947.46
2023-02-22T09:28:31.786Z,98944.42
2023-02-22T09:33:35.244Z,98950.86
2023-02-22T09:38:37.215Z,98945.08
2023-02-22T09:43:49.864Z,98941.22
2023-02-22T09:49:02.184Z,98940.08
2023-02-22T09:54:15.096Z,98939.71
2023-02-22T09:59:29.393Z,98936.73
2023-02-22T10:04:45.389Z,98935.59
2023-02-22T10:09:49.826Z,98932.61
2023-02-22T10:15:29.149Z,98926.42
2023-02-22T10:21:03.971Z,98920.71
2023-02-22T10:26:46.904Z,98920.80
2023-02-22T10:31:57.619Z,98920.05
2023-02-22T10:37:25.648Z,98921.52
2023-02-22T10:42:30.323Z,98917.66
2023-02-22T10:47:33.939Z,98914.54
2023-02-22T10:52:36.001Z,98909.27
2023-02-22T10:57:42.419Z,98906.93
2023-02-22T11:02:58.300Z,98902.95
2023-02-22T11:08:23.096Z,98901.33
2023-02-22T11:13:31.207Z,98898.25
2023-02-22T11:18:35.235Z,98895.69
2023-02-22T11:23:44.739Z,98893.06
2023-02-22T11:28:56.607Z,98886.61
2023-02-22T11:34:02.101Z,98886.38
2023-02-22T11:39:11.525Z,98879.33
2023-02-22T11:44:21.602Z,98879.29
2023-02-22T11:49:33.312Z,98873.22
2023-02-22T11:54:46.832Z,98874.00
2023-02-22T12:00:24.609Z,98869.90
2023-02-22T12:05:40.998Z,98869.66
2023-02-22T12:11:01.126Z,98874.09
2023-02-22T12:16:28.771Z,98870.02
2023-02-22T12:21:36.684Z,98870.74
2023-02-22T12:26:48.384Z,98868.23
2023-02-22T12:32:19.854Z,98872.58
2023-02-22T12:37:28.994Z,98873.73
2023-02-22T12:42:54.686Z,98868.17
2023-02-22T12:48:33.154Z,98867.12
2023-02-22T12:54:01.525Z,98860.02
2023-02-22T12:59:39.443Z,98852.86
2023-02-22T13:04:47.979Z,98851.26
2023-02-22T13:10:16.863Z,98854.77
2023-02-22T13:15:53.678Z,98849.89
2023-02-22T13:21:26.263Z,98850.30
2023-02-22T13:26:46.281Z,98848.21
2023-02-22T13:32:04.695Z,98846.11
2023-02-22T13:37:41.490Z,98847.25
2023-02-22T13:43:27.717Z,98849.21
2023-02-22T13:48:58.450Z,98844.79
2023-02-22T13:54:46.195Z,98836.50
2023-02-22T13:59:49.759Z,98835.40
2023-02-22T14:04:52.938Z,98837.67
2023-02-22T14:09:57.487Z,98838.93
2023-02-22T14:15:30.154Z,98845.22
2023-02-22T14:20:38.263Z,98841.89
2023-02-22T14:25:42.826Z,98843.36
2023-02-22T14:30:54.144Z,98840.27
2023-02-22T14:35:56.716Z,98840.98
2023-02-22T14:41:00.583Z,98843.66
2023-02-22T14:46:05.400Z,98844.12
2023-02-22T14:51:25.060Z,98848.33
2023-02-22T14:56:40.671Z,98849.58
2023-02-22T15:02:09.609Z,98847.06
2023-02-22T15:07:35.892Z,98851.42
2023-02-22T15:13:09.502Z,98843.61
2023-02-22T15:18:23.738Z,98846.11
2023-02-22T15:23:33.377Z,98848.48
2023-02-22T15:28:41.399Z,98848.23
2023-02-22T15:33:52.999Z,98849.05
2023-02-22T15:38:59.279Z,98850.87
2023-02-22T15:44:22.690Z,98847.39
2023-02-22T15:49:33.764Z,98846.50
2023-02-22T15:54:52.196Z,98843.42
2023-02-22T15:59:57.527Z,98846.08
2023-02-22T16:05:07.302Z,98847.80
2023-02-22T16:10:36.928Z,98846.74
2023-02-22T16:15:39.439Z,98849.16
2023-02-22T16:20:42.110Z,98850.69
2023-02-22T16:25:44.879Z,98852.26
2023-02-22T16:30:57.492Z,98852.91
2023-02-22T16:36:04.823Z,98860.77
2023-02-22T16:41:07.801Z,98863.59
2023-02-22T16:46:09.815Z,98863.71
2023-02-22T16:51:24.546Z,98865.02
2023-02-22T16:56:30.904Z,98868.34
2023-02-22T17:01:35.268Z,98869.52
2023-02-22T17:06:37.855Z,98874.46
2023-02-22T17:11:41.883Z,98875.86
2023-02-22T17:16:47.042Z,98878.02
2023-02-22T17:21:49.742Z,98877.36
2023-02-22T17:26:53.292Z,98882.09
2023-02-22T17:31:55.778Z,98885.37
2023-02-22T17:36:58.241Z,98888.21
2023-02-22T17:42:01.102Z,98883.98
2023-02-22T17:47:09.200Z,98881.39
2023-02-22T17:52:15.699Z,98884.38
2023-02-22T17:57:21.570Z,98887.10
2023-02-22T18:02:27.085Z,98887.01
2023-02-22T18:07:32.356Z,98890.08
2023-02-22T18:12:34.921Z,98890.34
2023-02-22T18:17:47.598Z,98889.27
2023-02-22T18:22:51.664Z,98894.83
2023-02-22T18:27:55.072Z,98895.73
2023-02-22T18:32:57.905Z,98896.77
2023-02-22T18:38:00.943Z,98893.55
2023-02-22T18:43:03.436Z,98892.89
2023-02-22T18:48:06.671Z,98896.16
2023-02-22T18:53:08.553Z,98892.67
2023-02-22T18:58:11.184Z,98889.70
2023-02-22T19:03:12.982Z,98883.02
2023-02-22T19:08:15.653Z,98880.72
2023-02-22T19:13:21.148Z,98878.30
2023-02-22T19:18:23.766Z,98875.25
2023-02-22T19:23:26.419Z,98879.45
2023-02-22T19:28:34.065Z,98877.10
2023-02-22T19:33:36.713Z,98874.13
2023-02-22T19:38:39.420Z,98874.30
2023-02-22T19:43:44.793Z,98878.52
2023-02-22T19:48:48.836Z,98877.39
2023-02-22T19:53:51.450Z,98879.83
2023-02-22T19:58:57.336Z,98886.15
2023-02-22T20:04:06.196Z,98889.80
2023-02-22T20:09:14.175Z,98892.27
2023-02-22T20:14:20.143Z,98890.04
2023-02-22T20:19:22.965Z,98891.09
2023-02-22T20:24:25.641Z,98889.48
2023-02-22T20:29:31.592Z,98892.85
2023-02-22T20:34:37.187Z,98894.40
2023-02-22T20:39:39.956Z,98892.02
2023-02-22T20:44:45.626Z,98890.99
2023-02-22T20:49:48.070Z,98896.43
2023-02-22T20:54:50.364Z,98893.13
2023-02-22T20:59:52.348Z,98896.32
2023-02-22T21:04:55.353Z,98893.11
2023-02-22T21:09:58.155Z,98888.24
2023-02-22T21:15:00.981Z,98884.40
2023-02-22T21:20:10.126Z,98880.43
2023-02-22T21:25:14.068Z,98880.38
2023-02-22T21:30:17.034Z,98876.77
2023-02-22T21:35:24.256Z,98875.52
2023-02-22T21:40:27.579Z,98874.53
2023-02-22T21:45:31.297Z,98868.35
2023-02-22T21:50:37.867Z,98867.71
2023-02-22T21:55:40.966Z,98868.57
2023-02-22T22:00:43.226Z,98872.50
2023-02-22T22:05:48.213Z,98864.42
2023-02-22T22:10:55.389Z,98863.11
2023-02-22T22:16:06.229Z,98863.09
2023-02-22T22:21:14.029Z,98859.00
2023-02-22T22:26:20.101Z,98861.43
2023-02-22T22:31:24.810Z,98854.52
2023-02-22T22:36:27.650Z,98851.19
2023-02-22T22:41:29.752Z,98845.83
2023-02-22T22:46:41.196Z,98842.77
2023-02-22T22:51:47.528Z,98848.85
2023-02-22T22:57:06.548Z,98850.22
2023-02-22T23:02:11.462Z,98850.77
2023-02-22T23:07:15.047Z,98856.17
2023-02-22T23:12:31.358Z,98858.29
2023-02-22T23:17:45.768Z,98860.74
2023-02-22T23:22:48.884Z,98863.19
2023-02-22T23:27:54.017Z,98864.82
2023-02-22T23:32:57.213Z,98862.20
2023-02-22T23:38:00.314Z,98861.41
2023-02-22T23:43:11.831Z,98859.73
2023-02-22T23:48:15.230Z,98860.54
2023-02-22T23:53:18.635Z,98864.69
2023-02-22T23:58:27.928Z,98862.83
